createdAt,value
2023-05-22T00:00:08.498Z,994.50
2023-05-22T00:00:18.756Z,994.50
2023-05-22T00:00:29.010Z,994.50
2023-05-22T00:00:39.494Z,994.50
2023-05-22T00:00:49.495Z,994.50
2023-05-22T00:00:59.759Z,994.50
2023-05-22T00:01:10.020Z,994.50
2023-05-22T00:01:20.276Z,994.50
2023-05-22T00:01:30.539Z,994.50
2023-05-22T00:01:40.807Z,994.50
2023-05-22T00:01:51.094Z,994.49
2023-05-22T00:02:01.345Z,994.49
2023-05-22T00:02:11.684Z,994.49
2023-05-22T00:02:21.997Z,994.48
2023-05-22T00:02:32.340Z,994.48
2023-05-22T00:02:42.756Z,994.48
2023-05-22T00:02:53.230Z,994.48
2023-05-22T00:03:03.391Z,994.48
2023-05-22T00:03:13.704Z,994.48
2023-05-22T00:03:23.980Z,994.48
2023-05-22T00:03:34.264Z,994.47
2023-05-22T00:03:44.499Z,994.47
2023-05-22T00:03:54.750Z,994.47
2023-05-22T00:04:05.049Z,994.46
2023-05-22T00:04:15.305Z,994.46
2023-05-22T00:04:25.581Z,994.46
2023-05-22T00:04:35.854Z,994.46
2023-05-22T00:04:46.163Z,994.46
2023-05-22T00:04:56.421Z,994.46
2023-05-22T00:05:06.670Z,994.46
2023-05-22T00:05:17.026Z,994.45
2023-05-22T00:05:27.355Z,994.45
2023-05-22T00:05:37.746Z,994.45
2023-05-22T00:05:47.852Z,994.45
2023-05-22T00:05:58.138Z,994.45
2023-05-22T00:06:08.405Z,994.45
2023-05-22T00:06:18.653Z,994.44
2023-05-22T00:06:28.909Z,994.44
2023-05-22T00:06:39.176Z,994.44
2023-05-22T00:06:49.544Z,994.44
2023-05-22T00:06:59.809Z,994.43
2023-05-22T00:07:10.055Z,994.43
2023-05-22T00:07:20.313Z,994.43
2023-05-22T00:07:30.571Z,994.43
2023-05-22T00:07:40.833Z,994.43
2023-05-22T00:07:51.104Z,994.43
2023-05-22T00:08:01.370Z,994.43
2023-05-22T00:08:11.624Z,994.43
2023-05-22T00:08:21.877Z,994.43
2023-05-22T00:08:32.134Z,994.42
2023-05-22T00:08:42.407Z,994.42
2023-05-22T00:08:52.669Z,994.42
2023-05-22T00:09:02.947Z,994.43
2023-05-22T00:09:13.216Z,994.42
2023-05-22T00:09:23.475Z,994.42
2023-05-22T00:09:33.736Z,994.42
2023-05-22T00:09:44.010Z,994.42
2023-05-22T00:09:54.267Z,994.42
2023-05-22T00:10:04.529Z,994.41
2023-05-22T00:10:14.782Z,994.41
2023-05-22T00:10:25.042Z,994.41
2023-05-22T00:10:35.303Z,994.41
2023-05-22T00:10:45.571Z,994.41
2023-05-22T00:10:55.822Z,994.41
2023-05-22T00:11:06.102Z,994.41
2023-05-22T00:11:16.389Z,994.40
2023-05-22T00:11:26.630Z,994.40
2023-05-22T00:11:36.895Z,994.40
2023-05-22T00:11:47.140Z,994.39
2023-05-22T00:11:57.417Z,994.39
2023-05-22T00:12:07.675Z,994.39
2023-05-22T00:12:17.931Z,994.39
2023-05-22T00:12:28.195Z,994.39
2023-05-22T00:12:38.471Z,994.39
2023-05-22T00:12:48.732Z,994.38
2023-05-22T00:12:58.972Z,994.39
2023-05-22T00:13:09.232Z,994.38
2023-05-22T00:13:19.556Z,994.39
2023-05-22T00:13:29.817Z,994.38
2023-05-22T00:13:40.100Z,994.38
2023-05-22T00:13:50.373Z,994.38
2023-05-22T00:14:00.674Z,994.38
2023-05-22T00:14:10.935Z,994.38
2023-05-22T00:14:21.199Z,994.38
2023-05-22T00:14:31.456Z,994.38
2023-05-22T00:14:41.726Z,994.38
2023-05-22T00:14:51.975Z,994.38
2023-05-22T00:15:02.253Z,994.37
2023-05-22T00:15:12.496Z,994.37
2023-05-22T00:15:22.764Z,994.36
2023-05-22T00:15:33.026Z,994.36
2023-05-22T00:15:43.282Z,994.36
2023-05-22T00:15:53.561Z,994.36
2023-05-22T00:16:03.806Z,994.36
2023-05-22T00:16:14.088Z,994.36
2023-05-22T00:16:24.339Z,994.36
2023-05-22T00:16:34.611Z,994.36
2023-05-22T00:16:44.882Z,994.36
2023-05-22T00:16:55.167Z,994.36
2023-05-22T00:17:05.413Z,994.36
2023-05-22T00:17:15.697Z,994.36
2023-05-22T00:17:26.072Z,994.36
2023-05-22T00:17:36.378Z,994.36
2023-05-22T00:17:46.706Z,994.36
2023-05-22T00:17:57.042Z,994.36
2023-05-22T00:18:07.292Z,994.36
2023-05-22T00:18:17.553Z,994.36
2023-05-22T00:18:27.830Z,994.36
2023-05-22T00:18:38.088Z,994.35
2023-05-22T00:18:48.399Z,994.36
2023-05-22T00:18:58.693Z,994.36
2023-05-22T00:19:09.016Z,994.36
2023-05-22T00:19:19.312Z,994.36
2023-05-22T00:19:29.612Z,994.36
2023-05-22T00:19:39.867Z,994.36
2023-05-22T00:19:50.135Z,994.36
2023-05-22T00:20:00.385Z,994.36
2023-05-22T00:20:10.685Z,994.36
2023-05-22T00:20:20.916Z,994.36
2023-05-22T00:20:31.189Z,994.35
2023-05-22T00:20:41.534Z,994.35
2023-05-22T00:20:51.836Z,994.35
2023-05-22T00:21:02.111Z,994.35
2023-05-22T00:21:12.366Z,994.35
2023-05-22T00:21:22.614Z,994.35
2023-05-22T00:21:32.877Z,994.34
2023-05-22T00:21:43.138Z,994.34
2023-05-22T00:21:53.398Z,994.34
2023-05-22T00:22:03.684Z,994.34
2023-05-22T00:22:13.922Z,994.34
2023-05-22T00:22:24.187Z,994.34
2023-05-22T00:22:34.457Z,994.34
2023-05-22T00:22:44.739Z,994.33
2023-05-22T00:22:55.010Z,994.33
2023-05-22T00:23:05.281Z,994.32
2023-05-22T00:23:15.869Z,994.33
2023-05-22T00:23:25.913Z,994.32
2023-05-22T00:23:36.147Z,994.31
2023-05-22T00:23:46.412Z,994.31
2023-05-22T00:23:56.666Z,994.31
2023-05-22T00:24:06.937Z,994.31
2023-05-22T00:24:17.193Z,994.30
2023-05-22T00:24:27.454Z,994.29
2023-05-22T00:24:37.711Z,994.29
2023-05-22T00:24:47.972Z,994.29
2023-05-22T00:24:58.236Z,994.29
2023-05-22T00:25:08.649Z,994.28
2023-05-22T00:25:18.911Z,994.28
2023-05-22T00:25:29.169Z,994.28
2023-05-22T00:25:39.432Z,994.28
2023-05-22T00:25:49.689Z,994.28
2023-05-22T00:25:59.952Z,994.28
2023-05-22T00:26:10.217Z,994.27
2023-05-22T00:26:20.476Z,994.27
2023-05-22T00:26:30.736Z,994.27
2023-05-22T00:26:40.995Z,994.27
2023-05-22T00:26:51.254Z,994.27
2023-05-22T00:27:01.518Z,994.26
2023-05-22T00:27:11.780Z,994.27
2023-05-22T00:27:22.058Z,994.26
2023-05-22T00:27:32.326Z,994.26
2023-05-22T00:27:42.607Z,994.26
2023-05-22T00:27:52.873Z,994.27
2023-05-22T00:28:03.127Z,994.26
2023-05-22T00:28:13.380Z,994.27
2023-05-22T00:28:23.646Z,994.27
2023-05-22T00:28:33.907Z,994.27
2023-05-22T00:28:44.172Z,994.26
2023-05-22T00:28:54.433Z,994.27
2023-05-22T00:29:04.697Z,994.27
2023-05-22T00:29:14.960Z,994.27
2023-05-22T00:29:25.214Z,994.27
2023-05-22T00:29:35.477Z,994.27
2023-05-22T00:29:45.742Z,994.26
2023-05-22T00:29:56.008Z,994.26
2023-05-22T00:30:06.262Z,994.27
2023-05-22T00:30:16.532Z,994.27
2023-05-22T00:30:26.781Z,994.26
2023-05-22T00:30:37.241Z,994.26
2023-05-22T00:30:47.380Z,994.26
2023-05-22T00:30:57.645Z,994.27
2023-05-22T00:31:07.895Z,994.26
2023-05-22T00:31:18.156Z,994.26
2023-05-22T00:31:28.441Z,994.26
2023-05-22T00:31:38.694Z,994.27
2023-05-22T00:31:48.939Z,994.27
2023-05-22T00:31:59.217Z,994.26
2023-05-22T00:32:09.476Z,994.26
2023-05-22T00:32:19.736Z,994.26
2023-05-22T00:32:30.018Z,994.26
2023-05-22T00:32:40.264Z,994.26
2023-05-22T00:32:50.586Z,994.26
2023-05-22T00:33:00.891Z,994.27
2023-05-22T00:33:11.142Z,994.26
2023-05-22T00:33:21.403Z,994.26
2023-05-22T00:33:31.662Z,994.26
2023-05-22T00:33:41.928Z,994.26
2023-05-22T00:33:52.206Z,994.26
2023-05-22T00:34:02.529Z,994.26
2023-05-22T00:34:12.844Z,994.26
2023-05-22T00:34:23.205Z,994.26
2023-05-22T00:34:33.478Z,994.26
2023-05-22T00:34:43.825Z,994.26
2023-05-22T00:34:54.128Z,994.26
2023-05-22T00:35:04.388Z,994.26
2023-05-22T00:35:14.653Z,994.26
2023-05-22T00:35:24.904Z,994.25
2023-05-22T00:35:35.170Z,994.25
2023-05-22T00:35:45.429Z,994.25
2023-05-22T00:35:55.706Z,994.25
2023-05-22T00:36:05.954Z,994.25
2023-05-22T00:36:16.244Z,994.25
2023-05-22T00:36:26.508Z,994.25
2023-05-22T00:36:36.768Z,994.25
2023-05-22T00:36:47.021Z,994.24
2023-05-22T00:36:57.285Z,994.24
2023-05-22T00:37:07.572Z,994.24
2023-05-22T00:37:17.829Z,994.23
2023-05-22T00:37:28.092Z,994.23
2023-05-22T00:37:38.363Z,994.23
2023-05-22T00:37:48.625Z,994.22
2023-05-22T00:37:58.876Z,994.22
2023-05-22T00:38:09.134Z,994.23
2023-05-22T00:38:19.403Z,994.22
2023-05-22T00:38:29.714Z,994.21
2023-05-22T00:38:39.971Z,994.22
2023-05-22T00:38:50.203Z,994.21
2023-05-22T00:39:00.482Z,994.22
2023-05-22T00:39:10.724Z,994.21
2023-05-22T00:39:20.988Z,994.21
2023-05-22T00:39:31.249Z,994.21
2023-05-22T00:39:41.523Z,994.21
2023-05-22T00:39:51.786Z,994.20
2023-05-22T00:40:02.034Z,994.21
2023-05-22T00:40:12.290Z,994.21
2023-05-22T00:40:22.555Z,994.21
2023-05-22T00:40:32.813Z,994.20
2023-05-22T00:40:43.079Z,994.20
2023-05-22T00:40:53.340Z,994.21
2023-05-22T00:41:03.607Z,994.21
2023-05-22T00:41:13.858Z,994.20
2023-05-22T00:41:24.156Z,994.20
2023-05-22T00:41:34.399Z,994.21
2023-05-22T00:41:44.673Z,994.21
2023-05-22T00:41:54.939Z,994.21
2023-05-22T00:42:05.181Z,994.21
2023-05-22T00:42:15.447Z,994.21
2023-05-22T00:42:25.728Z,994.21
2023-05-22T00:42:36.008Z,994.21
2023-05-22T00:42:46.270Z,994.21
2023-05-22T00:42:56.538Z,994.21
2023-05-22T00:43:06.791Z,994.22
2023-05-22T00:43:17.050Z,994.22
2023-05-22T00:43:27.307Z,994.22
2023-05-22T00:43:37.593Z,994.22
2023-05-22T00:43:47.837Z,994.22
2023-05-22T00:43:58.098Z,994.22
2023-05-22T00:44:08.357Z,994.22
2023-05-22T00:44:18.618Z,994.22
2023-05-22T00:44:28.879Z,994.22
2023-05-22T00:44:39.141Z,994.22
2023-05-22T00:44:49.403Z,994.22
2023-05-22T00:44:59.663Z,994.22
2023-05-22T00:45:09.920Z,994.23
2023-05-22T00:45:20.183Z,994.23
2023-05-22T00:45:30.443Z,994.23
2023-05-22T00:45:40.701Z,994.22
2023-05-22T00:45:50.965Z,994.22
2023-05-22T00:46:01.234Z,994.22
2023-05-22T00:46:11.511Z,994.23
2023-05-22T00:46:21.910Z,994.23
2023-05-22T00:46:32.052Z,994.23
2023-05-22T00:46:42.288Z,994.23
2023-05-22T00:46:52.747Z,994.23
2023-05-22T00:47:02.934Z,994.22
2023-05-22T00:47:13.238Z,994.22
2023-05-22T00:47:23.587Z,994.23
2023-05-22T00:47:33.865Z,994.23
2023-05-22T00:47:44.165Z,994.22
2023-05-22T00:47:54.538Z,994.23
2023-05-22T00:48:04.882Z,994.22
2023-05-22T00:48:15.109Z,994.22
2023-05-22T00:48:25.386Z,994.22
2023-05-22T00:48:35.630Z,994.22
2023-05-22T00:48:45.890Z,994.22
2023-05-22T00:48:56.187Z,994.22
2023-05-22T00:49:06.433Z,994.22
2023-05-22T00:49:16.688Z,994.22
2023-05-22T00:49:26.965Z,994.22
2023-05-22T00:49:37.224Z,994.22
2023-05-22T00:49:47.480Z,994.22
2023-05-22T00:49:57.737Z,994.23
2023-05-22T00:50:08.004Z,994.22
2023-05-22T00:50:18.266Z,994.22
2023-05-22T00:50:28.534Z,994.23
2023-05-22T00:50:38.968Z,994.23
2023-05-22T00:50:49.125Z,994.23
2023-05-22T00:50:59.396Z,994.24
2023-05-22T00:51:09.652Z,994.24
2023-05-22T00:51:19.908Z,994.24
2023-05-22T00:51:30.179Z,994.24
2023-05-22T00:51:40.441Z,994.24
2023-05-22T00:51:50.740Z,994.24
2023-05-22T00:52:00.983Z,994.25
2023-05-22T00:52:11.307Z,994.25
2023-05-22T00:52:21.545Z,994.24
2023-05-22T00:52:31.810Z,994.25
2023-05-22T00:52:42.077Z,994.25
2023-05-22T00:52:52.333Z,994.25
2023-05-22T00:53:02.592Z,994.25
2023-05-22T00:53:12.863Z,994.25
2023-05-22T00:53:23.137Z,994.25
2023-05-22T00:53:33.414Z,994.26
2023-05-22T00:53:43.684Z,994.26
2023-05-22T00:53:53.945Z,994.26
2023-05-22T00:54:04.206Z,994.26
2023-05-22T00:54:14.485Z,994.26
2023-05-22T00:54:24.734Z,994.27
2023-05-22T00:54:34.995Z,994.27
2023-05-22T00:54:45.261Z,994.27
2023-05-22T00:54:55.532Z,994.27
2023-05-22T00:55:05.773Z,994.27
2023-05-22T00:55:16.032Z,994.27
2023-05-22T00:55:26.304Z,994.27
2023-05-22T00:55:36.560Z,994.28
2023-05-22T00:55:46.818Z,994.28
2023-05-22T00:55:57.081Z,994.28
2023-05-22T00:56:07.359Z,994.28
2023-05-22T00:56:17.631Z,994.28
2023-05-22T00:56:27.900Z,994.28
2023-05-22T00:56:38.175Z,994.28
2023-05-22T00:56:48.436Z,994.28
2023-05-22T00:56:58.701Z,994.28
2023-05-22T00:57:08.962Z,994.29
2023-05-22T00:57:19.242Z,994.29
2023-05-22T00:57:29.528Z,994.29
2023-05-22T00:57:39.772Z,994.29
2023-05-22T00:57:50.035Z,994.29
2023-05-22T00:58:00.305Z,994.29
2023-05-22T00:58:10.561Z,994.29
2023-05-22T00:58:20.819Z,994.30
2023-05-22T00:58:31.080Z,994.30
2023-05-22T00:58:41.349Z,994.29
2023-05-22T00:58:51.608Z,994.29
2023-05-22T00:59:01.869Z,994.30
2023-05-22T00:59:12.134Z,994.30
2023-05-22T00:59:22.402Z,994.30
2023-05-22T00:59:32.674Z,994.30
2023-05-22T00:59:42.916Z,994.30
2023-05-22T00:59:53.177Z,994.30
2023-05-22T01:00:03.444Z,994.30
2023-05-22T01:00:13.729Z,994.31
2023-05-22T01:00:23.959Z,994.31
2023-05-22T01:00:34.270Z,994.31
2023-05-22T01:00:44.553Z,994.30
2023-05-22T01:00:54.804Z,994.30
2023-05-22T01:01:05.067Z,994.31
2023-05-22T01:01:15.390Z,994.31
2023-05-22T01:01:25.671Z,994.31
2023-05-22T01:01:35.931Z,994.31
2023-05-22T01:01:46.208Z,994.31
2023-05-22T01:01:56.506Z,994.31
2023-05-22T01:02:06.945Z,994.31
2023-05-22T01:02:17.103Z,994.32
2023-05-22T01:02:27.355Z,994.32
2023-05-22T01:02:37.796Z,994.31
2023-05-22T01:02:48.018Z,994.31
2023-05-22T01:02:58.194Z,994.31
2023-05-22T01:03:08.515Z,994.32
2023-05-22T01:03:18.865Z,994.32
2023-05-22T01:03:29.208Z,994.32
2023-05-22T01:03:39.604Z,994.31
2023-05-22T01:03:49.852Z,994.32
2023-05-22T01:04:00.351Z,994.31
2023-05-22T01:04:10.507Z,994.32
2023-05-22T01:04:20.789Z,994.32
2023-05-22T01:04:31.054Z,994.31
2023-05-22T01:04:41.314Z,994.32
2023-05-22T01:04:51.591Z,994.32
2023-05-22T01:05:01.883Z,994.31
2023-05-22T01:05:12.223Z,994.31
2023-05-22T01:05:22.446Z,994.32
2023-05-22T01:05:32.703Z,994.31
2023-05-22T01:05:42.984Z,994.31
2023-05-22T01:05:53.233Z,994.32
2023-05-22T01:06:03.488Z,994.32
2023-05-22T01:06:13.753Z,994.32
2023-05-22T01:06:24.011Z,994.32
2023-05-22T01:06:34.276Z,994.32
2023-05-22T01:06:44.545Z,994.31
2023-05-22T01:06:54.795Z,994.31
2023-05-22T01:07:05.060Z,994.31
2023-05-22T01:07:15.435Z,994.31
2023-05-22T01:07:25.739Z,994.31
2023-05-22T01:07:35.962Z,994.31
2023-05-22T01:07:46.228Z,994.31
2023-05-22T01:07:56.503Z,994.31
2023-05-22T01:08:06.759Z,994.31
2023-05-22T01:08:17.022Z,994.31
2023-05-22T01:08:27.279Z,994.32
2023-05-22T01:08:37.544Z,994.32
2023-05-22T01:08:47.853Z,994.31
2023-05-22T01:08:58.093Z,994.31
2023-05-22T01:09:08.355Z,994.32
2023-05-22T01:09:18.622Z,994.32
2023-05-22T01:09:28.894Z,994.31
2023-05-22T01:09:39.167Z,994.31
2023-05-22T01:09:49.432Z,994.31
2023-05-22T01:09:59.690Z,994.32
2023-05-22T01:10:09.953Z,994.32
2023-05-22T01:10:20.213Z,994.32
2023-05-22T01:10:30.493Z,994.32
2023-05-22T01:10:40.933Z,994.32
2023-05-22T01:10:50.973Z,994.32
2023-05-22T01:11:01.232Z,994.32
2023-05-22T01:11:11.505Z,994.33
2023-05-22T01:11:21.755Z,994.33
2023-05-22T01:11:32.015Z,994.33
2023-05-22T01:11:42.279Z,994.33
2023-05-22T01:11:52.544Z,994.33
2023-05-22T01:12:02.797Z,994.34
2023-05-22T01:12:13.059Z,994.34
2023-05-22T01:12:23.319Z,994.34
2023-05-22T01:12:33.581Z,994.34
2023-05-22T01:12:43.843Z,994.35
2023-05-22T01:12:54.103Z,994.35
2023-05-22T01:13:04.374Z,994.35
2023-05-22T01:13:14.632Z,994.34
2023-05-22T01:13:24.890Z,994.35
2023-05-22T01:13:35.150Z,994.35
2023-05-22T01:13:45.430Z,994.36
2023-05-22T01:13:55.699Z,994.35
2023-05-22T01:14:05.952Z,994.36
2023-05-22T01:14:16.212Z,994.35
2023-05-22T01:14:26.480Z,994.35
2023-05-22T01:14:36.730Z,994.36
2023-05-22T01:14:47.024Z,994.36
2023-05-22T01:14:57.276Z,994.36
2023-05-22T01:15:07.562Z,994.36
2023-05-22T01:15:17.825Z,994.36
2023-05-22T01:15:28.086Z,994.36
2023-05-22T01:15:38.343Z,994.36
2023-05-22T01:15:48.658Z,994.36
2023-05-22T01:15:58.957Z,994.36
2023-05-22T01:16:09.289Z,994.36
2023-05-22T01:16:19.570Z,994.37
2023-05-22T01:16:30.035Z,994.37
2023-05-22T01:16:40.144Z,994.36
2023-05-22T01:16:50.420Z,994.36
2023-05-22T01:17:00.683Z,994.36
2023-05-22T01:17:10.953Z,994.37
2023-05-22T01:17:21.216Z,994.37
2023-05-22T01:17:31.496Z,994.37
2023-05-22T01:17:41.815Z,994.36
2023-05-22T01:17:52.086Z,994.36
2023-05-22T01:18:02.422Z,994.37
2023-05-22T01:18:12.761Z,994.36
2023-05-22T01:18:23.035Z,994.36
2023-05-22T01:18:33.292Z,994.36
2023-05-22T01:18:43.598Z,994.36
2023-05-22T01:18:53.875Z,994.36
2023-05-22T01:19:04.151Z,994.36
2023-05-22T01:19:14.484Z,994.35
2023-05-22T01:19:24.780Z,994.36
2023-05-22T01:19:35.138Z,994.35
2023-05-22T01:19:45.230Z,994.34
2023-05-22T01:19:55.524Z,994.35
2023-05-22T01:20:05.777Z,994.34
2023-05-22T01:20:16.035Z,994.34
2023-05-22T01:20:26.321Z,994.34
2023-05-22T01:20:36.665Z,994.34
2023-05-22T01:20:48.723Z,994.34
2023-05-22T01:20:57.367Z,994.33
2023-05-22T01:21:07.613Z,994.33
2023-05-22T01:21:17.879Z,994.33
2023-05-22T01:21:28.144Z,994.33
2023-05-22T01:21:38.403Z,994.33
2023-05-22T01:21:48.664Z,994.33
2023-05-22T01:21:58.937Z,994.33
2023-05-22T01:22:09.256Z,994.32
2023-05-22T01:22:19.513Z,994.32
2023-05-22T01:22:29.740Z,994.32
2023-05-22T01:22:39.997Z,994.32
2023-05-22T01:22:50.267Z,994.32
2023-05-22T01:23:00.527Z,994.32
2023-05-22T01:23:10.783Z,994.32
2023-05-22T01:23:21.045Z,994.32
2023-05-22T01:23:31.317Z,994.32
2023-05-22T01:23:41.586Z,994.31
2023-05-22T01:23:51.847Z,994.32
2023-05-22T01:24:02.158Z,994.31
2023-05-22T01:24:12.386Z,994.31
2023-05-22T01:24:22.671Z,994.31
2023-05-22T01:24:32.956Z,994.31
2023-05-22T01:24:43.191Z,994.31
2023-05-22T01:24:53.454Z,994.31
2023-05-22T01:25:03.714Z,994.31
2023-05-22T01:25:13.970Z,994.31
2023-05-22T01:25:24.230Z,994.31
2023-05-22T01:25:34.506Z,994.31
2023-05-22T01:25:44.831Z,994.31
2023-05-22T01:25:55.095Z,994.31
2023-05-22T01:26:05.372Z,994.31
2023-05-22T01:26:15.612Z,994.31
2023-05-22T01:26:25.955Z,994.31
2023-05-22T01:26:36.177Z,994.31
2023-05-22T01:26:46.427Z,994.31
2023-05-22T01:26:56.688Z,994.31
2023-05-22T01:27:09.850Z,994.31
2023-05-22T01:27:17.297Z,994.30
2023-05-22T01:27:27.563Z,994.30
2023-05-22T01:27:37.820Z,994.30
2023-05-22T01:27:48.084Z,994.30
2023-05-22T01:27:58.345Z,994.30
2023-05-22T01:28:19.032Z,994.30
2023-05-22T01:28:29.285Z,994.30
2023-05-22T01:28:39.563Z,994.30
2023-05-22T01:28:49.826Z,994.30
2023-05-22T01:29:00.137Z,994.30
2023-05-22T01:29:10.375Z,994.30
2023-05-22T01:29:20.641Z,994.30
2023-05-22T01:29:30.884Z,994.30
2023-05-22T01:29:41.153Z,994.30
2023-05-22T01:29:51.434Z,994.30
2023-05-22T01:30:01.704Z,994.30
2023-05-22T01:30:11.942Z,994.30
2023-05-22T01:30:22.198Z,994.30
2023-05-22T01:30:32.460Z,994.30
2023-05-22T01:30:42.720Z,994.30
2023-05-22T01:30:52.975Z,994.30
2023-05-22T01:31:03.245Z,994.30
2023-05-22T01:31:13.495Z,994.30
2023-05-22T01:31:23.757Z,994.30
2023-05-22T01:31:34.019Z,994.30
2023-05-22T01:31:44.283Z,994.30
2023-05-22T01:31:54.543Z,994.29
2023-05-22T01:32:04.827Z,994.29
2023-05-22T01:32:15.067Z,994.29
2023-05-22T01:32:25.398Z,994.29
2023-05-22T01:32:35.740Z,994.29
2023-05-22T01:32:46.037Z,994.29
2023-05-22T01:32:56.348Z,994.29
2023-05-22T01:33:06.680Z,994.29
2023-05-22T01:33:17.040Z,994.29
2023-05-22T01:33:27.321Z,994.29
2023-05-22T01:33:37.738Z,994.29
2023-05-22T01:33:48.229Z,994.29
2023-05-22T01:33:58.514Z,994.29
2023-05-22T01:34:08.596Z,994.29
2023-05-22T01:34:18.836Z,994.29
2023-05-22T01:34:29.097Z,994.29
2023-05-22T01:34:39.375Z,994.29
2023-05-22T01:34:49.627Z,994.28
2023-05-22T01:34:59.881Z,994.29
2023-05-22T01:35:10.140Z,994.29
2023-05-22T01:35:20.416Z,994.29
2023-05-22T01:35:30.660Z,994.29
2023-05-22T01:35:40.928Z,994.29
2023-05-22T01:35:51.188Z,994.29
2023-05-22T01:36:01.450Z,994.29
2023-05-22T01:36:11.702Z,994.29
2023-05-22T01:36:21.970Z,994.30
2023-05-22T01:36:32.228Z,994.30
2023-05-22T01:36:42.490Z,994.30
2023-05-22T01:36:52.751Z,994.30
2023-05-22T01:37:03.014Z,994.30
2023-05-22T01:37:13.278Z,994.30
2023-05-22T01:37:23.582Z,994.30
2023-05-22T01:37:33.797Z,994.31
2023-05-22T01:37:44.060Z,994.31
2023-05-22T01:37:54.329Z,994.32
2023-05-22T01:38:04.602Z,994.32
2023-05-22T01:38:14.864Z,994.32
2023-05-22T01:38:25.122Z,994.32
2023-05-22T01:38:35.384Z,994.32
2023-05-22T01:38:45.652Z,994.33
2023-05-22T01:38:55.906Z,994.32
2023-05-22T01:39:06.175Z,994.33
2023-05-22T01:39:16.482Z,994.33
2023-05-22T01:39:26.735Z,994.32
2023-05-22T01:39:36.990Z,994.32
2023-05-22T01:39:47.240Z,994.33
2023-05-22T01:39:57.505Z,994.33
2023-05-22T01:40:07.782Z,994.33
2023-05-22T01:40:18.033Z,994.34
2023-05-22T01:40:28.306Z,994.33
2023-05-22T01:40:38.771Z,994.34
2023-05-22T01:40:48.943Z,994.33
2023-05-22T01:40:59.205Z,994.33
2023-05-22T01:41:09.472Z,994.34
2023-05-22T01:41:19.733Z,994.33
2023-05-22T01:41:30.006Z,994.34
2023-05-22T01:41:40.250Z,994.34
2023-05-22T01:41:50.508Z,994.33
2023-05-22T01:42:00.776Z,994.33
2023-05-22T01:42:11.031Z,994.33
2023-05-22T01:42:21.314Z,994.33
2023-05-22T01:42:31.571Z,994.33
2023-05-22T01:42:41.847Z,994.33
2023-05-22T01:42:52.126Z,994.32
2023-05-22T01:43:02.387Z,994.33
2023-05-22T01:43:12.661Z,994.32
2023-05-22T01:43:22.908Z,994.32
2023-05-22T01:43:33.171Z,994.32
2023-05-22T01:43:43.449Z,994.32
2023-05-22T01:43:53.691Z,994.32
2023-05-22T01:44:03.957Z,994.32
2023-05-22T01:44:14.218Z,994.32
2023-05-22T01:44:24.474Z,994.32
2023-05-22T01:44:34.737Z,994.32
2023-05-22T01:44:45.002Z,994.32
2023-05-22T01:44:55.258Z,994.32
2023-05-22T01:45:05.524Z,994.32
2023-05-22T01:45:15.784Z,994.32
2023-05-22T01:45:26.051Z,994.31
2023-05-22T01:45:36.339Z,994.31
2023-05-22T01:45:46.607Z,994.31
2023-05-22T01:45:56.912Z,994.31
2023-05-22T01:46:07.265Z,994.31
2023-05-22T01:46:17.600Z,994.31
2023-05-22T01:46:28.006Z,994.31
2023-05-22T01:46:38.114Z,994.30
2023-05-22T01:46:48.378Z,994.30
2023-05-22T01:46:58.648Z,994.31
2023-05-22T01:47:08.908Z,994.30
2023-05-22T01:47:19.200Z,994.30
2023-05-22T01:47:29.474Z,994.30
2023-05-22T01:47:39.733Z,994.30
2023-05-22T01:47:49.998Z,994.30
2023-05-22T01:48:00.354Z,994.29
2023-05-22T01:48:10.647Z,994.29
2023-05-22T01:48:20.905Z,994.29
2023-05-22T01:48:31.168Z,994.29
2023-05-22T01:48:41.424Z,994.29
2023-05-22T01:48:51.685Z,994.29
2023-05-22T01:49:01.957Z,994.29
2023-05-22T01:49:12.204Z,994.29
2023-05-22T01:49:22.465Z,994.28
2023-05-22T01:49:32.724Z,994.29
2023-05-22T01:49:42.993Z,994.29
2023-05-22T01:49:53.252Z,994.28
2023-05-22T01:50:03.529Z,994.28
2023-05-22T01:50:13.784Z,994.28
2023-05-22T01:50:24.043Z,994.28
2023-05-22T01:50:34.302Z,994.28
2023-05-22T01:50:44.562Z,994.28
2023-05-22T01:50:54.859Z,994.28
2023-05-22T01:51:05.095Z,994.28
2023-05-22T01:51:15.354Z,994.28
2023-05-22T01:51:25.610Z,994.27
2023-05-22T01:51:35.891Z,994.27
2023-05-22T01:51:46.151Z,994.27
2023-05-22T01:51:56.464Z,994.27
2023-05-22T01:52:06.709Z,994.27
2023-05-22T01:52:16.972Z,994.26
2023-05-22T01:52:27.261Z,994.26
2023-05-22T01:52:37.495Z,994.26
2023-05-22T01:52:47.760Z,994.27
2023-05-22T01:52:58.015Z,994.26
2023-05-22T01:53:08.273Z,994.26
2023-05-22T01:53:18.541Z,994.26
2023-05-22T01:53:28.810Z,994.26
2023-05-22T01:53:39.111Z,994.26
2023-05-22T01:53:49.360Z,994.25
2023-05-22T01:53:59.622Z,994.25
2023-05-22T01:54:09.891Z,994.25
2023-05-22T01:54:20.195Z,994.25
2023-05-22T01:54:30.409Z,994.25
2023-05-22T01:54:40.670Z,994.25
2023-05-22T01:54:50.931Z,994.25
2023-05-22T01:55:01.194Z,994.24
2023-05-22T01:55:11.455Z,994.24
2023-05-22T01:55:21.718Z,994.24
2023-05-22T01:55:31.979Z,994.24
2023-05-22T01:55:42.237Z,994.24
2023-05-22T01:55:52.503Z,994.24
2023-05-22T01:56:02.760Z,994.24
2023-05-22T01:56:13.034Z,994.24
2023-05-22T01:56:23.294Z,994.23
2023-05-22T01:56:33.567Z,994.23
2023-05-22T01:56:43.842Z,994.23
2023-05-22T01:56:54.097Z,994.23
2023-05-22T01:57:04.368Z,994.23
2023-05-22T01:57:14.621Z,994.23
2023-05-22T01:57:24.886Z,994.23
2023-05-22T01:57:35.143Z,994.23
2023-05-22T01:57:45.409Z,994.23
2023-05-22T01:57:55.761Z,994.22
2023-05-22T01:58:06.025Z,994.22
2023-05-22T01:58:16.287Z,994.22
2023-05-22T01:58:26.546Z,994.22
2023-05-22T01:58:36.811Z,994.23
2023-05-22T01:58:47.068Z,994.22
2023-05-22T01:58:57.327Z,994.22
2023-05-22T01:59:07.594Z,994.22
2023-05-22T01:59:17.849Z,994.22
2023-05-22T01:59:28.107Z,994.22
2023-05-22T01:59:38.370Z,994.22
2023-05-22T01:59:48.709Z,994.22
2023-05-22T01:59:58.937Z,994.22
2023-05-22T02:00:09.193Z,994.22
2023-05-22T02:00:19.455Z,994.23
2023-05-22T02:00:29.721Z,994.22
2023-05-22T02:00:40.129Z,994.22
2023-05-22T02:00:50.606Z,994.22
2023-05-22T02:01:01.080Z,994.22
2023-05-22T02:01:11.145Z,994.22
2023-05-22T02:01:21.457Z,994.22
2023-05-22T02:01:31.723Z,994.22
2023-05-22T02:01:42.045Z,994.22
2023-05-22T02:01:52.404Z,994.22
2023-05-22T02:02:02.697Z,994.22
2023-05-22T02:02:13.032Z,994.22
2023-05-22T02:02:23.548Z,994.22
2023-05-22T02:02:33.735Z,994.22
2023-05-22T02:02:44.074Z,994.22
2023-05-22T02:02:54.489Z,994.22
2023-05-22T02:03:04.634Z,994.22
2023-05-22T02:03:15.089Z,994.23
2023-05-22T02:03:25.327Z,994.22
2023-05-22T02:03:35.648Z,994.22
2023-05-22T02:03:45.927Z,994.22
2023-05-22T02:03:56.172Z,994.23
2023-05-22T02:04:06.442Z,994.22
2023-05-22T02:04:16.796Z,994.22
2023-05-22T02:04:27.040Z,994.22
2023-05-22T02:04:37.304Z,994.22
2023-05-22T02:04:47.578Z,994.22
2023-05-22T02:04:57.825Z,994.22
2023-05-22T02:05:08.087Z,994.22
2023-05-22T02:05:18.364Z,994.22
2023-05-22T02:05:28.792Z,994.22
2023-05-22T02:05:39.022Z,994.22
2023-05-22T02:05:49.287Z,994.22
2023-05-22T02:05:59.573Z,994.21
2023-05-22T02:06:09.855Z,994.22
2023-05-22T02:06:20.097Z,994.21
2023-05-22T02:06:30.354Z,994.21
2023-05-22T02:06:40.620Z,994.22
2023-05-22T02:06:50.887Z,994.21
2023-05-22T02:07:01.149Z,994.21
2023-05-22T02:07:12.250Z,994.21
2023-05-22T02:07:21.699Z,994.22
2023-05-22T02:07:31.983Z,994.21
2023-05-22T02:07:42.217Z,994.21
2023-05-22T02:07:52.479Z,994.21
2023-05-22T02:08:02.793Z,994.22
2023-05-22T02:08:13.042Z,994.22
2023-05-22T02:08:23.314Z,994.22